x

East Dellwood (46207) Wave Buoy

12:00pm - Fri 18th Apr 2014 All times are PDT. -7 hours from GMT.

  • Sig Wave height 8.2ft
  • Peak Period 10s
  • Wind
    16mph, 20mph gusts
  • Sea Temp 48°f
  • Air Temp 47°f
  • Sea Pressure 1014mb
  • East Dellwood
  • East Dellwood

More Historic Weather Station data

Upgrade to MSW Pro to gain access to the past 30 days of data for over 8000 Wavebouys and Weather Stations around the globe.

Join Pro

Comparision Forecast

View Surf forecast
   
Fri 04/18 12:00pm 8ft 10s 16 20 mph 1014mb 48f 47f
11:00am 9.5ft 10s 13 16 mph 1014mb 48f 46f
10:00am 10ft 10s 9 13 mph 1014mb 48f 46f
9:00am 11ft 10s 9 11 mph 1014.2mb 48f 46f
8:00am 9ft 9s 4 7 mph 1014.1mb 47f 44f
7:00am 9.5ft 10s 7 11 mph 1013.8mb 47f 44f
6:00am 9.5ft 11s 7 9 mph 1013.5mb 47f 45f
5:00am 9ft 11s 2 7 mph 1013mb 47f 45f
4:00am 8.5ft 11s 9 11 mph 1012.8mb 47f 45f
3:00am 8ft 11s 11 13 mph 1012.7mb 47f 44f
2:00am 9ft 11s 7 9 mph 1012.6mb 48f 45f
1:00am 9ft 12s 11 13 mph 1012.5mb 48f 44f
12:00am 9ft 11s 18 22 mph 1012.1mb 48f 46f
Thu 04/17 11:00pm 10ft 11s 13 18 mph 1012.2mb 48f 47f
10:00pm 11ft 10s 13 18 mph 1011.9mb 48f 46f
9:00pm 12ft 10s 18 22 mph 1011.4mb 48f 46f
8:00pm 11.5ft 10s 18 20 mph 1010.9mb 48f 47f
7:00pm 11ft 11s 18 22 mph 1010.6mb 48f 47f
6:00pm 11ft 10s 18 22 mph 1010.2mb 48f 47f
5:00pm 10ft 9s 18 22 mph 1009.7mb 48f 47f
4:00pm 9ft 11s 18 20 mph 1009.3mb 48f 47f
3:00pm 9ft 9s 16 20 mph 1008.8mb 48f 47f
2:00pm 8.5ft 10s 16 20 mph 1008.3mb 48f 47f
1:00pm 8ft 11s 16 20 mph 1007.7mb 48f 47f
12:00pm 9ft 10s 18 20 mph 1007mb 47f 47f
11:00am 9ft 9s 13 18 mph 1006.4mb 47f 47f
10:00am 9.5ft 8s 16 22 mph 1005.8mb 47f 46f
9:00am 10ft 11s 18 22 mph 1005.2mb 47f 46f
8:00am 10ft 10s 20 25 mph 1004.5mb 47f 47f
7:00am 10.5ft 7s 20 22 mph 1003.8mb 47f 47f
6:00am 10ft 10s 20 25 mph 1002.9mb 48f 47f
5:00am 11ft 10s 20 27 mph 1001.8mb 48f 47f
4:00am 11ft 11s 22 29 mph 1000.8mb 48f 47f
3:00am 11ft 11s 25 29 mph 999.6mb 48f 47f
2:00am 11ft 7s 27 31 mph 998.2mb 48f 48f
1:00am 11ft 11s 29 34 mph 998.3mb 48f 49f
12:00am 10.5ft 6s 29 36 mph 999mb 48f 49f
Wed 04/16 11:00pm 9ft 6s 31 38 mph 1000mb 47f 49f
10:00pm 8ft 12s 27 34 mph 1001.5mb 47f 48f
9:00pm 8.5ft 12s 25 31 mph 1002.5mb 47f 49f
8:00pm 8ft 12s 25 31 mph 1003.2mb 47f 48f
7:00pm 7.5ft 10s 22 29 mph 1004.7mb 48f 48f
6:00pm 8ft 12s 20 27 mph 1005.9mb 48f 48f
5:00pm 8ft 12s 20 22 mph 1007mb 48f 48f
4:00pm 8ft 11s 18 20 mph 1007.6mb 48f 47f
3:00pm 7.5ft 11s 18 22 mph 1008.1mb 48f 47f
2:00pm 7.5ft 12s 16 18 mph 1008.4mb 48f 47f
1:00pm 7ft 13s 16 18 mph 1008.3mb 48f 47f
12:00pm 7.5ft 12s 13 16 mph 1009mb 48f 47f
11:00am 6.5ft 12s 16 18 mph 1008.8mb 47f 47f
10:00am 7ft 12s 13 18 mph 1008.8mb 47f 47f
9:00am 7.5ft 13s 13 16 mph 1008.7mb 47f 47f
8:00am 7ft 13s 11 13 mph 1008.7mb 47f 47f
7:00am 8ft 11s 11 13 mph 1009.1mb 47f 47f
6:00am 7.5ft 12s 11 13 mph 1008.8mb 47f 47f
5:00am 7ft 12s 13 16 mph 1008.7mb 47f 48f
4:00am 7ft 12s 16 18 mph 1009.2mb 47f 48f
3:00am 7ft 13s 13 18 mph 1009.6mb 47f 48f
2:00am 7.5ft 14s 11 16 mph 1010.5mb 47f 47f
1:00am 8ft 13s 9 11 mph 1011mb 47f 47f
12:00am 8ft 13s 9
mph
1011.5mb 47f 47f
Tue 04/15 11:00pm 7ft 8s 20 27 mph 1011.7mb 47f 47f
10:00pm 6ft 8s 22 29 mph 1012.2mb 47f 47f
9:00pm 6.5ft 8s 20 25 mph 1013.2mb 47f 46f
8:00pm 7ft 8s 20 25 mph 1013.4mb 47f 46f
7:00pm 7ft 8s 18 20 mph 1014.2mb 47f 47f
6:00pm 7ft 8s 16 20 mph 1015mb 47f 47f
4:00pm 7ft 9s 13 16 mph 1015.9mb 47f 48f
3:00pm 6ft 9s 11 13 mph 1016.7mb 47f 48f
2:00pm 6ft 10s 13 18 mph 1016.8mb 47f 48f
1:00pm 6ft 9s 11 13 mph 1016.7mb 47f 47f
12:00pm 6.5ft 9s 13 18 mph 1016.9mb 47f 47f
11:00am 7ft 10s 13 18 mph 1017.1mb 47f 47f
10:00am 6.5ft 9s 13 16 mph 1017.2mb 47f 47f
9:00am 7ft 10s 11 13 mph 1017.3mb 47f 47f
8:00am 8ft 9s 16 20 mph 1016.8mb 47f 47f
7:00am 8.5ft 10s 11 18 mph 1016.8mb 47f 47f
6:00am 9ft 9s 13 16 mph 1016.4mb 47f 47f
5:00am 8ft 8s 16 20 mph 1016.4mb 47f 47f
4:00am 9.5ft 10s 11 16 mph 1016.7mb 47f 46f
3:00am 9ft 10s 18 22 mph 1016.6mb 47f 47f
2:00am 9.5ft 10s 18 22 mph 1016.6mb 47f 48f
1:00am 10.5ft 10s 18 20 mph 1016.6mb 47f 48f
12:00am 11ft 11s 20 25 mph 1016.6mb 47f 47f
Mon 04/14 11:00pm 10.5ft 12s 18 25 mph 1017.2mb 47f 47f
10:00pm 11.5ft 10s 18 22 mph 1017.8mb 47f 47f
9:00pm 12.5ft 12s 18 25 mph 1017.9mb 47f 47f